Flight Track Log - Related Links

Times and Time Zones

All times are in EDT time to prevent confusion due to time zone crossing. See the RPA3392 flight status page for this flight to view local times or setup timezone preferences in your user account.


Time Position Orientation Groundspeed Altitude Reporting Facility
EDT Latitude Longitude Course Direction KTS MPH feet Rate Location/Type
Tue 10:21:58 PM 38.7733 -77.0350 83° East 166 191 2,600  Level Washington Center
Tue 10:22:59 PM 38.7514 -76.9544 109° East 194 223 4,500 2,361 Climbing Washington Center
Tue 10:23:00 PM 38.9782 -76.6602 57° Northeast  Level FlightAware Approximate
Tue 10:24:00 PM 39.0271 -76.5355 67° East  Level FlightAware Approximate
Tue 10:24:00 PM 38.8147 -76.8944 36° Northeast 168 193 7,400  Level Washington Center
Tue 10:24:57 PM 38.8797 -76.8369 35° Northeast 221 254 10,400 2,136 Climbing Washington Center
Tue 10:25:00 PM 39.0764 -76.4106 61° Northeast  Level FlightAware Approximate
Tue 10:25:58 PM 38.9308 -76.7417 55° Northeast 265 305 11,600  Level Washington Center
Tue 10:26:00 PM 39.1167 -76.2837 90° East  Level FlightAware Approximate
Tue 10:26:58 PM 38.9797 -76.6278 61° Northeast 305 351 13,700  Level Washington Center
Tue 10:27:00 PM 39.1556 -76.1607 83° East  Level FlightAware Approximate
Tue 10:27:59 PM 39.0308 -76.5108 61° Northeast 341 392 15,700  Level Washington Center
Tue 10:29:00 PM 39.0794 -76.3911 62° Northeast 366 421 17,300 1,412 Climbing Washington Center
Tue 10:29:58 PM 39.1367 -76.2606 60° Northeast 378 435 18,500 1,412 Climbing Washington Center
Tue 10:30:59 PM 39.1686 -76.1136 74° East 384 442 20,100 1,339 Climbing Washington Center
Tue 10:31:59 PM 39.1836 -75.9664 82° East 396 456 21,200 1,140 Climbing Washington Center
Tue 10:33:00 PM 39.2258 -75.8300 68° East 408 470 22,400 1,109 Climbing Washington Center
Tue 10:33:58 PM 39.3092 -75.7258 44° Northeast 399 459 23,400 958 Climbing Washington Center
Tue 10:34:59 PM 39.3947 -75.6183 44° Northeast 409 471 24,300 836 Climbing Washington Center
Tue 10:36:00 PM 39.4822 -75.5056 45° Northeast 421 484 25,100 857 Climbing Washington Center
Tue 10:36:58 PM 39.5697 -75.3922 45° Northeast 431 496 26,000 915 Climbing Washington Center
Tue 10:37:58 PM 39.6569 -75.2789 45° Northeast 436 502 26,900 863 Climbing Washington Center
Tue 10:39:17 PM 39.7664 -75.1217 48° Northeast 461 531 28,000 920 Climbing New York Center
Tue 10:40:15 PM 39.8544 -74.9919 48° Northeast 466 536 29,000 504 Climbing New York Center
Tue 10:41:16 PM 39.9464 -74.8731 45° Northeast 466 536 29,000  Level New York Center
Tue 10:42:15 PM 40.0397 -74.7619 42° Northeast 461 531 29,000  Level New York Center
Tue 10:43:17 PM 40.1267 -74.6583 42° Northeast 456 525 29,000  Level New York Center
Tue 10:44:15 PM 40.2128 -74.5108 53° Northeast 462 532 29,000  Level New York Center
Tue 10:45:16 PM 40.2839 -74.3650 57° Northeast 468 539 29,000  Level New York Center
Tue 10:46:17 PM 40.3508 -74.2161 59° Northeast 468 539 29,000  Level New York Center
Tue 10:47:16 PM 40.3992 -74.0578 68° East 463 533 29,000 -353 Level New York Center
Tue 10:48:16 PM 40.4553 -73.9078 64° Northeast 463 533 28,300 -1,014 Descending New York Center
Tue 10:50:43 PM 40.7158 -73.6969 32° Northeast 429 494 25,500 -1,101 Descending Boston Center
Tue 10:51:43 PM 40.8103 -73.6192 32° Northeast 434 499 24,500 -750 Descending Boston Center
Tue 10:52:43 PM 40.9133 -73.5358 31° Northeast 436 502 24,000 -250 Descending Boston Center
Tue 10:53:43 PM 41.0267 -73.4525 29° Northeast 431 496 24,000  Level Boston Center
Tue 10:54:43 PM 41.1433 -73.4378 North 414 476 24,000 -650 Level Boston Center
Tue 10:55:43 PM 41.2558 -73.4478 356° North 406 467 22,700 -1,400 Descending Boston Center
Tue 10:56:43 PM 41.3725 -73.4608 355° North 406 467 21,200 -1,350 Descending Boston Center
Tue 10:57:43 PM 41.4828 -73.4653 358° North 401 461 20,000 -600 Descending Boston Center
Tue 10:58:43 PM 41.5892 -73.4808 354° North 394 453 20,000  Level Boston Center
Tue 10:59:43 PM 41.6994 -73.4911 356° North 394 453 20,000 -800 Level Boston Center
Tue 11:00:43 PM 41.8097 -73.4983 357° North 394 453 18,400 -1,700 Descending Boston Center
Tue 11:01:43 PM 41.9036 -73.5056 357° North 385 443 16,600 -1,950 Descending Boston Center
Tue 11:02:43 PM 42.0161 -73.5158 356° North 375 432 14,500 -1,922 Descending Boston Center
Tue 11:03:51 PM 42.1244 -73.5206 358° North 347 399 12,500 -1,800 Descending Boston Center
Tue 11:04:43 PM 42.2056 -73.5358 352° North 344 396 10,900 -1,232 Descending Boston Center
Tue 11:05:43 PM 42.2908 -73.5572 349° North 328 377 10,200 -1,200 Descending Boston Center
Tue 11:06:43 PM 42.3656 -73.5725 351° North 284 327 8,500 -1,650 Descending Boston Center
Tue 11:07:43 PM 42.4383 -73.5908 349° North 268 308 6,900 -1,750 Descending Boston Center
Tue 11:08:43 PM 42.5131 -73.6089 350° North 268 308 5,000 -1,700 Descending Boston Center
Tue 11:09:43 PM 42.5817 -73.6244 351° North 258 297 3,500 -1,000 Descending Boston Center
Tue 11:10:43 PM 42.6464 -73.6397 350° North 242 278 3,000 -250 Descending Boston Center
Tue 11:11:43 PM 42.7003 -73.6550 348° North 221 254 3,000  Level Boston Center
Tue 11:12:43 PM 42.7647 -73.6647 354° North 215 247 3,000 -224 Level Boston Center
Tue 11:13:57 PM 42.8333 -73.6831 349° North 191 220 2,500 -500 Descending Boston Center
Tue 11:14:55 PM 42.8706 -73.7150 328° Northwest 183 211 1,900 -621 Descending Boston Center

Login

Don't have an account? Register now (free) for customized features, flight alerts, and more!